Time;durP1;ratioP1;P1;durP2;ratioP2;P2;SDS_P1;SDS_P2;PMS_P1;PMS_P2;Temp;Humidity;BMP_temperature;BMP_pressure;BME280_temperature;BME280_humidity;BME280_pressure;Samples;Min_cycle;Max_cycle;Signal;HPM_P1;HPM_P2
2023/03/19 00:01:04;;;;;;;6.40;2.80;;;;;;;-1.54;77.39;96088.50;106677;1275;22528;-67
2023/03/19 00:03:41;;;;;;;8.80;4.00;;;;;;;-1.55;76.83;96086.06;106660;1275;22521;-67
2023/03/19 00:06:10;;;;;;;6.40;3.00;;;;;;;-1.52;77.04;96089.94;106650;1275;22520;-68
2023/03/19 00:08:40;;;;;;;5.80;3.50;;;;;;;-1.55;77.69;96091.40;106656;1274;22843;-68
2023/03/19 00:11:11;;;;;;;7.20;4.00;;;;;;;-1.64;78.10;96090.90;106690;1275;22577;-68
2023/03/19 00:13:39;;;;;;;5.00;2.60;;;;;;;-1.70;78.41;96086.88;106656;1274;24493;-68
2023/03/19 00:16:07;;;;;;;5.00;2.80;;;;;;;-1.71;77.85;96085.30;106717;1275;22576;-68
2023/03/19 00:18:36;;;;;;;4.40;3.00;;;;;;;-1.70;77.65;96086.00;106575;1258;22524;-68
2023/03/19 00:21:04;;;;;;;6.20;3.70;;;;;;;-1.71;77.48;96085.79;106653;1275;22528;-67
2023/03/19 00:23:35;;;;;;;5.50;3.10;;;;;;;-1.66;77.37;96088.26;106980;1275;24197;-68
2023/03/19 00:26:03;;;;;;;6.90;3.60;;;;;;;-1.60;77.07;96085.86;106982;1274;24260;-68
2023/03/19 00:28:32;;;;;;;4.70;2.80;;;;;;;-1.59;77.27;96084.87;106651;1275;22530;-68
2023/03/19 00:31:08;;;;;;;5.30;2.50;;;;;;;-1.61;76.95;96084.78;106723;1275;22808;-68
2023/03/19 00:33:37;;;;;;;5.40;2.50;;;;;;;-1.56;77.22;96088.09;106603;1264;25469;-68
2023/03/19 00:36:06;;;;;;;4.20;2.30;;;;;;;-1.53;77.19;96091.13;106671;1275;22503;-67
2023/03/19 00:38:35;;;;;;;7.70;4.00;;;;;;;-1.54;77.28;96088.51;106638;1274;22511;-67
2023/03/19 00:41:06;;;;;;;3.80;2.60;;;;;;;-1.61;76.79;96088.59;106713;1274;25285;-68
2023/03/19 00:43:34;;;;;;;5.90;2.50;;;;;;;-1.65;77.22;96081.02;106582;1275;22609;-67
2023/03/19 00:46:03;;;;;;;4.00;2.40;;;;;;;-1.65;77.88;96081.21;106579;1275;22576;-67
2023/03/19 00:48:33;;;;;;;4.90;2.50;;;;;;;-1.63;78.00;96079.03;106657;1274;25233;-67
2023/03/19 00:51:07;;;;;;;7.20;2.80;;;;;;;-1.60;77.86;96080.34;106680;1274;24277;-68
2023/03/19 00:53:41;;;;;;;6.10;2.70;;;;;;;-1.58;78.14;96073.86;106585;1275;22551;-67
2023/03/19 00:56:11;;;;;;;5.80;2.60;;;;;;;-1.55;78.14;96078.29;106696;1275;23792;-68
2023/03/19 00:58:40;;;;;;;4.70;3.20;;;;;;;-1.53;78.67;96078.00;106677;1275;24861;-68
2023/03/19 01:01:10;;;;;;;6.60;3.40;;;;;;;-1.57;78.51;96077.85;106649;1275;22580;-67
2023/03/19 01:03:38;;;;;;;5.00;2.80;;;;;;;-1.63;78.17;96072.31;106593;1275;23879;-67
2023/03/19 01:06:07;;;;;;;4.50;2.60;;;;;;;-1.59;78.25;96071.77;106653;1275;22515;-68
2023/03/19 01:08:35;;;;;;;5.60;3.10;;;;;;;-1.51;78.32;96068.58;106610;1274;22516;-68
2023/03/19 01:11:09;;;;;;;5.80;2.80;;;;;;;-1.44;78.22;96069.16;106546;1274;22680;-68
2023/03/19 01:13:38;;;;;;;5.60;2.80;;;;;;;-1.43;77.63;96066.78;106602;1275;24037;-68
2023/03/19 01:16:07;;;;;;;6.80;2.80;;;;;;;-1.40;77.61;96069.32;106703;1275;24340;-68
2023/03/19 01:18:35;;;;;;;3.30;2.40;;;;;;;-1.42;77.33;96070.77;106691;1275;22530;-68
2023/03/19 01:21:05;;;;;;;4.30;2.80;;;;;;;-1.52;76.96;96066.83;106642;1274;24446;-67
2023/03/19 01:23:34;;;;;;;6.00;2.60;;;;;;;-1.58;76.81;96064.38;106657;1275;22524;-68
2023/03/19 01:26:03;;;;;;;4.10;2.50;;;;;;;-1.59;76.86;96063.67;106701;1275;22875;-68
2023/03/19 01:28:32;;;;;;;4.70;2.70;;;;;;;-1.60;76.81;96067.75;106638;1275;23888;-68
2023/03/19 01:31:05;;;;;;;6.20;3.10;;;;;;;-1.61;76.90;96072.38;106651;1264;24543;-68
2023/03/19 01:33:52;;;;;;;4.10;2.40;;;;;;;-1.70;77.38;96067.55;106634;1275;22637;-68
2023/03/19 01:36:35;;;;;;;4.60;2.30;;;;;;;-1.81;76.70;96064.23;106771;1275;27183;-68
2023/03/19 01:39:06;;;;;;;4.60;2.10;;;;;;;-1.87;76.74;96061.27;106625;1275;25323;-68
2023/03/19 01:41:34;;;;;;;3.70;2.10;;;;;;;-1.91;76.85;96064.90;106627;1275;24564;-68
2023/03/19 01:44:38;;;;;;;5.60;2.50;;;;;;;-1.96;77.24;96067.48;106591;1275;24069;-68
2023/03/19 01:47:27;;;;;;;;;;;;;;;-1.99;78.42;96077.70;106671;1275;22504;-68
2023/03/19 01:50:26;;;;;;;10.70;5.40;;;;;;;-2.08;78.34;96074.98;106625;1275;22533;-68
2023/03/19 01:53:16;;;;;;;10.70;5.80;;;;;;;-2.17;79.08;96076.00;106567;1275;22938;-68
2023/03/19 01:56:16;;;;;;;4.50;2.20;;;;;;;-2.26;78.32;96075.34;106628;1275;22645;-68
2023/03/19 01:59:36;;;;;;;4.10;2.50;;;;;;;-2.29;78.12;96072.30;106777;1275;24383;-68
2023/03/19 02:02:31;;;;;;;4.10;2.00;;;;;;;-2.26;78.10;96069.48;106650;1275;25292;-68
2023/03/19 02:05:12;;;;;;;4.10;2.00;;;;;;;-2.27;78.05;96067.17;106604;1275;22681;-67
2023/03/19 02:07:43;;;;;;;2.10;1.40;;;;;;;-2.26;77.94;96068.45;106642;1275;25340;-68
2023/03/19 02:10:15;;;;;;;3.00;1.80;;;;;;;-2.31;77.80;96067.04;106582;1275;23007;-68
2023/03/19 02:12:45;;;;;;;4.10;2.20;;;;;;;-2.34;78.09;96070.04;106763;1275;22496;-68
2023/03/19 02:15:14;;;;;;;5.90;2.90;;;;;;;-2.34;79.04;96070.73;106763;1275;22580;-68
2023/03/19 02:17:43;;;;;;;7.60;3.60;;;;;;;-2.33;79.70;96072.66;106752;1275;25609;-68
2023/03/19 02:20:23;;;;;;;7.50;3.80;;;;;;;-2.30;79.88;96071.02;106718;1275;24399;-68
2023/03/19 02:23:30;;;;;;;3.80;2.20;;;;;;;-2.27;79.62;96072.34;106667;1275;25649;-68
2023/03/19 02:26:19;;;;;;;3.50;2.20;;;;;;;-2.26;79.45;96071.71;106678;1275;25344;-68
2023/03/19 02:28:52;;;;;;;4.40;2.20;;;;;;;-2.21;79.38;96076.73;106670;1275;22793;-68
2023/03/19 02:31:24;;;;;;;4.70;2.30;;;;;;;-2.17;79.25;96079.10;106614;1275;22525;-68
2023/03/19 02:34:01;;;;;;;2.70;1.90;;;;;;;-2.11;79.38;96079.35;106645;1275;23162;-68
2023/03/19 02:36:43;;;;;;;5.60;2.40;;;;;;;-2.03;79.21;96079.65;106644;1275;22777;-68
2023/03/19 02:39:27;;;;;;;5.40;2.40;;;;;;;-1.93;79.31;96075.36;106629;1275;23235;-68
2023/03/19 02:41:57;;;;;;;4.30;2.80;;;;;;;-1.85;79.11;96069.98;106611;1275;23108;-68
2023/03/19 02:44:26;;;;;;;3.40;2.00;;;;;;;-1.86;78.58;96072.68;106634;1275;22532;-68
2023/03/19 02:46:55;;;;;;;4.00;2.20;;;;;;;-1.85;78.70;96071.52;106566;1275;24331;-68
2023/03/19 02:49:23;;;;;;;6.50;2.10;;;;;;;-1.79;78.84;96073.80;106720;1275;22602;-68
2023/03/19 02:51:52;;;;;;;4.40;2.60;;;;;;;-1.73;78.68;96080.39;106680;1274;24448;-68
2023/03/19 02:54:20;;;;;;;3.60;2.20;;;;;;;-1.79;77.97;96082.58;106597;1275;22649;-68
2023/03/19 02:56:51;;;;;;;4.30;2.40;;;;;;;-1.87;78.19;96079.89;106668;1274;25368;-68
2023/03/19 02:59:19;;;;;;;6.40;4.50;;;;;;;-1.90;78.19;96080.27;106668;1275;22855;-68
2023/03/19 03:01:49;;;;;;;7.80;4.80;;;;;;;-2.01;77.93;96082.31;106655;1274;23884;-68
2023/03/19 03:04:18;;;;;;;5.30;3.90;;;;;;;-2.04;78.69;96081.34;106697;1274;22575;-68
2023/03/19 03:06:46;;;;;;;3.40;2.30;;;;;;;-2.07;78.91;96080.19;106653;1272;22523;-68
2023/03/19 03:09:15;;;;;;;5.60;3.10;;;;;;;-2.09;79.05;96078.73;106686;1274;25776;-68
2023/03/19 03:11:44;;;;;;;4.80;2.80;;;;;;;-2.13;79.05;96081.68;106617;1274;22520;-68
2023/03/19 03:14:12;;;;;;;7.00;3.80;;;;;;;-2.19;78.84;96083.88;106699;1274;22552;-68
2023/03/19 03:16:41;;;;;;;4.10;2.80;;;;;;;-2.25;79.40;96086.56;106671;1274;25615;-68
2023/03/19 03:19:10;;;;;;;4.10;2.50;;;;;;;-2.30;78.90;96087.56;106651;1274;22642;-68
2023/03/19 03:21:38;;;;;;;4.50;1.90;;;;;;;-2.31;78.72;96086.34;106533;1274;25662;-68
2023/03/19 03:24:08;;;;;;;5.00;2.10;;;;;;;-2.34;78.36;96085.69;106642;1269;25391;-68
2023/03/19 03:26:37;;;;;;;4.70;2.40;;;;;;;-2.37;78.20;96084.89;106695;1275;24375;-68
2023/03/19 03:29:06;;;;;;;17.80;7.60;;;;;;;-2.38;78.43;96085.55;106695;1274;22729;-68
2023/03/19 03:31:35;;;;;;;47.20;21.50;;;;;;;-2.42;78.24;96084.70;106753;1274;24251;-68
2023/03/19 03:34:04;;;;;;;7.00;3.90;;;;;;;-2.49;78.35;96092.20;106740;1272;24267;-68
2023/03/19 03:36:32;;;;;;;3.90;2.10;;;;;;;-2.52;78.48;96092.23;106620;1275;25751;-68
2023/03/19 03:39:01;;;;;;;13.60;7.40;;;;;;;-2.56;79.05;96096.55;106712;1274;22536;-68
2023/03/19 03:41:29;;;;;;;6.60;3.80;;;;;;;-2.62;80.15;96100.64;106587;1274;22513;-65
2023/03/19 03:43:57;;;;;;;5.20;2.80;;;;;;;-2.66;80.11;96102.04;106715;1275;23757;-68
2023/03/19 03:46:26;;;;;;;5.80;2.60;;;;;;;-2.66;79.62;96101.86;106570;1267;22705;-68
2023/03/19 03:48:54;;;;;;;3.40;1.90;;;;;;;-2.61;79.59;96101.86;106680;1275;22645;-68
2023/03/19 03:51:23;;;;;;;4.70;2.60;;;;;;;-2.59;79.55;96102.63;106734;1275;24244;-68
2023/03/19 03:53:51;;;;;;;4.00;2.20;;;;;;;-2.58;79.55;96105.23;106690;1274;24374;-68
2023/03/19 03:56:20;;;;;;;3.30;1.80;;;;;;;-2.57;79.29;96101.15;106603;1275;22589;-69
2023/03/19 03:58:48;;;;;;;4.50;2.10;;;;;;;-2.54;79.03;96104.41;106648;1274;25322;-66
2023/03/19 04:01:18;;;;;;;7.30;4.40;;;;;;;-2.55;79.73;96106.05;106662;1275;22774;-66
2023/03/19 04:03:47;;;;;;;17.50;8.20;;;;;;;-2.61;79.88;96108.08;106651;1274;22690;-66
2023/03/19 04:06:17;;;;;;;10.50;5.60;;;;;;;-2.61;80.59;96109.79;106726;1274;25426;-66
2023/03/19 04:08:49;;;;;;;7.50;5.30;;;;;;;-2.62;80.10;96104.77;106676;1274;25350;-68
2023/03/19 04:11:18;;;;;;;6.50;3.60;;;;;;;-2.59;80.34;96107.80;106712;1274;25457;-68
2023/03/19 04:13:47;;;;;;;4.80;2.90;;;;;;;-2.55;80.40;96103.98;106615;1275;25743;-68
2023/03/19 04:16:15;;;;;;;5.50;2.90;;;;;;;-2.46;80.68;96110.56;106722;1274;22779;-69
2023/03/19 04:18:43;;;;;;;5.60;3.70;;;;;;;-2.38;80.68;96105.19;106716;1274;24245;-68
2023/03/19 04:21:12;;;;;;;7.00;3.70;;;;;;;-2.29;80.73;96104.70;106673;1275;24228;-68
2023/03/19 04:23:40;;;;;;;14.10;6.80;;;;;;;-2.24;80.89;96106.26;106591;1275;22532;-68
2023/03/19 04:26:09;;;;;;;17.10;8.30;;;;;;;-2.27;79.99;96106.66;106650;1275;25320;-68
2023/03/19 04:28:37;;;;;;;32.60;10.70;;;;;;;-2.28;79.85;96110.90;106672;1274;22640;-68
2023/03/19 04:31:08;;;;;;;114.00;35.40;;;;;;;-2.30;79.90;96114.64;106617;1274;24455;-68
2023/03/19 04:33:39;;;;;;;90.30;26.50;;;;;;;-2.30;79.76;96118.92;106656;1275;25292;-68
2023/03/19 04:36:07;;;;;;;5.60;2.30;;;;;;;-2.25;80.13;96111.21;106536;1275;22654;-68
2023/03/19 04:38:37;;;;;;;3.10;2.00;;;;;;;-2.04;81.00;96115.13;106648;1275;22524;-67
2023/03/19 04:41:05;;;;;;;3.50;2.10;;;;;;;-1.89;80.50;96108.96;106731;1274;26872;-68
2023/03/19 04:43:35;;;;;;;5.90;1.90;;;;;;;-1.87;79.90;96109.20;106695;1275;25312;-68
2023/03/19 04:46:06;;;;;;;40.20;14.80;;;;;;;-1.86;80.03;96112.16;106582;1275;22664;-68
2023/03/19 04:48:36;;;;;;;49.90;17.80;;;;;;;-1.89;80.19;96109.80;106689;1274;25403;-68
2023/03/19 04:51:07;;;;;;;96.80;34.10;;;;;;;-1.97;80.07;96112.13;106654;1274;24081;-68
2023/03/19 04:53:37;;;;;;;71.40;27.90;;;;;;;-2.04;80.43;96112.02;106716;1274;24378;-68
2023/03/19 04:56:06;;;;;;;55.10;21.70;;;;;;;-2.05;80.61;96114.20;106615;1274;25399;-68
2023/03/19 04:58:35;;;;;;;85.40;33.00;;;;;;;-1.95;81.39;96108.52;106711;1263;24052;-68
2023/03/19 05:01:04;;;;;;;79.90;30.90;;;;;;;-1.75;81.41;96107.39;106642;1274;25462;-67
2023/03/19 05:03:51;;;;;;;84.40;35.30;;;;;;;-1.62;80.85;96102.55;106648;1267;22805;-68
2023/03/19 05:06:20;;;;;;;71.00;27.20;;;;;;;-1.57;80.53;96103.57;106561;1275;25472;-68
2023/03/19 05:08:48;;;;;;;66.20;23.30;;;;;;;-1.54;80.28;96107.67;106659;1275;24580;-69
2023/03/19 05:11:18;;;;;;;62.90;24.70;;;;;;;-1.45;80.39;96105.05;106744;1275;25365;-68
2023/03/19 05:14:03;;;;;;;65.60;26.00;;;;;;;-1.38;80.20;96098.58;106700;1274;25198;-68
2023/03/19 05:16:51;;;;;;;75.30;33.40;;;;;;;-1.28;80.20;96098.02;106406;1274;25639;-68
2023/03/19 05:19:21;;;;;;;54.70;26.70;;;;;;;-1.20;80.01;96097.45;106730;1274;25475;-68
2023/03/19 05:21:49;;;;;;;38.50;19.20;;;;;;;-1.20;79.24;96094.50;106723;1274;24228;-69
2023/03/19 05:24:25;;;;;;;39.60;17.90;;;;;;;-1.24;79.70;96094.55;106662;1275;24298;-68
2023/03/19 05:26:55;;;;;;;27.60;12.80;;;;;;;-1.24;79.67;96094.35;106581;1274;25378;-68
2023/03/19 05:29:38;;;;;;;26.60;11.60;;;;;;;-1.26;79.55;96091.53;106684;1274;22688;-68
2023/03/19 05:32:27;;;;;;;8.10;4.30;;;;;;;-1.28;80.23;96089.04;106924;1274;24260;-68
2023/03/19 05:34:57;;;;;;;5.60;2.50;;;;;;;-1.22;80.32;96084.95;106654;1275;25207;-68
2023/03/19 05:37:25;;;;;;;10.50;5.90;;;;;;;-1.18;80.53;96084.39;106743;1275;24384;-68
2023/03/19 05:39:56;;;;;;;21.20;9.80;;;;;;;-1.13;80.73;96083.36;106733;1274;26747;-68
2023/03/19 05:42:25;;;;;;;19.90;9.50;;;;;;;-1.10;81.66;96082.61;106695;1274;24374;-68
2023/03/19 05:44:55;;;;;;;7.40;3.80;;;;;;;-1.09;81.19;96081.25;106671;1274;25496;-67
2023/03/19 05:47:28;;;;;;;6.60;3.30;;;;;;;-1.08;80.93;96083.53;106590;1274;22559;-68
2023/03/19 05:49:57;;;;;;;5.60;3.10;;;;;;;-1.05;80.69;96082.58;106668;1274;22538;-68
2023/03/19 05:52:25;;;;;;;6.50;3.60;;;;;;;-1.01;80.57;96077.89;106652;1274;22679;-68
2023/03/19 05:54:56;;;;;;;14.70;6.80;;;;;;;-0.97;80.92;96080.45;106620;1274;24253;-68
2023/03/19 05:57:38;;;;;;;10.70;5.40;;;;;;;-0.86;80.86;96079.77;106652;1275;22528;-68
2023/03/19 06:00:27;;;;;;;14.00;6.10;;;;;;;-0.79;80.60;96079.46;106649;1275;24261;-67
2023/03/19 06:02:55;;;;;;;17.80;8.70;;;;;;;-0.76;80.71;96081.84;106661;1275;22524;-68
2023/03/19 06:05:37;;;;;;;16.30;8.50;;;;;;;-0.71;81.25;96082.86;106636;1270;23019;-68
2023/03/19 06:08:26;;;;;;;16.90;9.40;;;;;;;-0.68;82.06;96079.85;106562;1275;22537;-68
2023/03/19 06:11:01;;;;;;;14.70;8.80;;;;;;;-0.62;81.67;96082.27;106612;1275;24279;-68
2023/03/19 06:13:30;;;;;;;12.70;7.30;;;;;;;-0.59;81.51;96073.90;106689;1275;25388;-68
2023/03/19 06:16:17;;;;;;;29.90;15.80;;;;;;;-0.50;81.02;96068.33;106684;1275;25473;-67
2023/03/19 06:18:55;;;;;;;34.70;18.50;;;;;;;-0.37;80.67;96067.00;106711;1275;24384;-68
2023/03/19 06:21:28;;;;;;;32.60;18.00;;;;;;;-0.21;80.19;96069.55;106674;1274;22530;-68
2023/03/19 06:23:58;;;;;;;90.40;43.40;;;;;;;-0.04;79.62;96066.45;106738;1275;25819;-68
2023/03/19 06:26:31;;;;;;;73.60;37.90;;;;;;;0.15;79.74;96067.50;106696;1275;25323;-68
2023/03/19 06:29:00;;;;;;;52.00;28.90;;;;;;;0.34;79.43;96069.27;106662;1275;22637;-69
2023/03/19 06:31:28;;;;;;;34.20;20.20;;;;;;;0.56;79.19;96072.80;106697;1275;22637;-68
2023/03/19 06:33:58;;;;;;;30.90;17.90;;;;;;;0.72;78.67;96068.06;106681;1275;25679;-68
2023/03/19 06:36:32;;;;;;;35.30;20.20;;;;;;;0.92;78.40;96073.95;106633;1275;25383;-68
2023/03/19 06:39:02;;;;;;;37.10;20.80;;;;;;;1.08;77.05;96073.52;106734;1275;25473;-68
2023/03/19 06:41:30;;;;;;;34.60;17.80;;;;;;;1.26;75.91;96065.63;106698;1274;24356;-68
2023/03/19 06:44:07;;;;;;;29.00;14.60;;;;;;;1.44;75.48;96063.83;106601;1275;22557;-68
2023/03/19 06:46:35;;;;;;;21.20;12.20;;;;;;;1.61;74.99;96065.80;106740;1265;22632;-68
2023/03/19 06:49:03;;;;;;;16.70;10.00;;;;;;;1.83;75.53;96068.72;106680;1275;24361;-68
2023/03/19 06:51:31;;;;;;;14.40;8.60;;;;;;;2.03;74.84;96065.70;106624;1275;22533;-68
2023/03/19 06:53:59;;;;;;;15.20;8.20;;;;;;;2.22;74.76;96064.55;106688;1275;23159;-68
2023/03/19 06:56:28;;;;;;;16.00;9.30;;;;;;;2.43;74.43;96063.92;106792;1275;25617;-68
2023/03/19 06:58:56;;;;;;;16.40;9.00;;;;;;;2.60;74.10;96066.70;106637;1275;23880;-68
2023/03/19 07:01:24;;;;;;;13.40;8.10;;;;;;;2.74;72.94;96063.52;106642;1275;25381;-68
2023/03/19 07:03:53;;;;;;;17.60;9.00;;;;;;;2.81;72.66;96055.98;106689;1275;24379;-68
2023/03/19 07:06:22;;;;;;;13.80;7.60;;;;;;;2.92;72.74;96051.48;106690;1275;24263;-68
2023/03/19 07:08:50;;;;;;;14.90;8.10;;;;;;;2.97;72.23;96050.36;106737;1274;25694;-68
2023/03/19 07:11:18;;;;;;;17.10;9.80;;;;;;;3.09;72.33;96053.70;106648;1270;22762;-68
2023/03/19 07:13:46;;;;;;;18.40;10.50;;;;;;;3.23;72.29;96045.27;106672;1275;22786;-68
2023/03/19 07:16:14;;;;;;;20.90;10.60;;;;;;;3.36;71.53;96046.52;106681;1275;22917;-68
2023/03/19 07:18:43;;;;;;;23.60;10.60;;;;;;;3.45;71.12;96046.33;106698;1275;25109;-68
2023/03/19 07:21:11;;;;;;;16.10;9.70;;;;;;;3.56;71.06;96052.23;106973;1275;24183;-68
2023/03/19 07:23:40;;;;;;;16.50;9.50;;;;;;;3.67;70.42;96047.36;106961;1275;22639;-68
2023/03/19 07:26:08;;;;;;;15.30;8.00;;;;;;;3.80;70.30;96045.29;106645;1275;23885;-68
2023/03/19 07:28:36;;;;;;;14.90;8.00;;;;;;;3.96;70.36;96041.52;106647;1275;22524;-67
2023/03/19 07:31:05;;;;;;;15.10;8.10;;;;;;;4.14;70.17;96037.23;106827;1274;22524;-67
2023/03/19 07:33:34;;;;;;;17.60;8.70;;;;;;;4.30;69.78;96039.37;106692;1274;22534;-68
2023/03/19 07:36:03;;;;;;;11.60;7.60;;;;;;;4.47;67.95;96040.45;106742;1274;25265;-68
2023/03/19 07:38:31;;;;;;;9.30;6.50;;;;;;;4.62;68.45;96034.19;106850;1259;22605;-69
2023/03/19 07:41:00;;;;;;;10.70;7.00;;;;;;;4.76;67.65;96034.51;106686;1274;22650;-69
2023/03/19 07:43:30;;;;;;;10.30;8.00;;;;;;;4.93;66.65;96030.67;106758;1274;22524;-69
2023/03/19 07:45:59;;;;;;;8.10;5.90;;;;;;;5.09;65.83;96030.49;106719;1275;24253;-69
2023/03/19 07:48:28;;;;;;;12.50;10.00;;;;;;;5.26;66.15;96032.04;106707;1274;25276;-69
2023/03/19 07:50:56;;;;;;;11.60;8.60;;;;;;;5.42;64.74;96033.58;106660;1274;22526;-68
2023/03/19 07:53:25;;;;;;;8.10;5.50;;;;;;;5.54;63.73;96031.59;106666;1274;25236;-69
2023/03/19 07:55:53;;;;;;;11.80;6.50;;;;;;;5.66;63.25;96032.89;106628;1274;22527;-69
2023/03/19 07:58:21;;;;;;;7.30;5.20;;;;;;;5.79;62.98;96029.15;106677;1275;22523;-69
2023/03/19 08:00:49;;;;;;;8.70;5.20;;;;;;;5.92;62.32;96026.63;106622;1274;22520;-69
2023/03/19 08:03:18;;;;;;;7.90;4.80;;;;;;;6.06;61.27;96025.33;106652;1274;25469;-69
2023/03/19 08:05:51;;;;;;;8.40;4.90;;;;;;;6.18;61.97;96022.27;106687;1275;22520;-69
2023/03/19 08:08:20;;;;;;;9.20;5.00;;;;;;;6.30;60.93;96022.32;106703;1274;22512;-69
2023/03/19 08:10:51;;;;;;;7.80;4.60;;;;;;;6.40;59.63;96012.76;106684;1274;22530;-69
2023/03/19 08:13:20;;;;;;;8.30;4.70;;;;;;;6.48;57.77;96009.82;106682;1274;22520;-69
2023/03/19 08:15:50;;;;;;;7.60;4.90;;;;;;;6.59;58.92;96013.35;106783;1275;22548;-69
2023/03/19 08:18:19;;;;;;;9.10;5.40;;;;;;;6.74;59.38;96009.90;106739;1275;22785;-69
2023/03/19 08:20:47;;;;;;;8.50;5.00;;;;;;;6.86;58.76;96004.70;106660;1275;22564;-69
2023/03/19 08:23:16;;;;;;;7.20;5.10;;;;;;;6.99;58.65;96005.59;106719;1274;25352;-70
2023/03/19 08:25:44;;;;;;;6.80;5.00;;;;;;;7.11;55.75;96006.67;106617;1275;25383;-69
2023/03/19 08:28:12;;;;;;;11.40;8.30;;;;;;;7.24;56.47;95997.06;106778;1275;23134;-70
2023/03/19 08:30:40;;;;;;;6.80;4.90;;;;;;;7.37;55.79;96006.68;106690;1275;22531;-71
2023/03/19 08:33:09;;;;;;;9.20;5.30;;;;;;;7.49;55.90;96004.06;106671;1269;22642;-70
2023/03/19 08:35:37;;;;;;;7.30;5.10;;;;;;;7.59;55.33;96001.79;106708;1274;23882;-71
2023/03/19 08:38:06;;;;;;;7.00;5.10;;;;;;;7.73;56.00;96004.74;106689;1270;24331;-70
2023/03/19 08:40:34;;;;;;;15.20;9.90;;;;;;;7.88;56.10;96004.21;106621;1275;26642;-70
2023/03/19 08:43:04;;;;;;;11.30;5.60;;;;;;;8.00;52.63;95998.05;106624;1275;25316;-68
2023/03/19 08:45:32;;;;;;;7.30;4.90;;;;;;;8.16;54.39;95997.48;106746;1267;24373;-68
2023/03/19 08:48:00;;;;;;;6.70;4.60;;;;;;;8.29;53.45;95996.75;106754;1275;25213;-67
2023/03/19 08:50:28;;;;;;;8.50;5.20;;;;;;;8.41;54.13;95994.10;106697;1274;25347;-67
2023/03/19 08:52:57;;;;;;;6.90;5.30;;;;;;;8.56;54.49;95992.64;106646;1275;25231;-67
2023/03/19 08:55:25;;;;;;;6.60;4.50;;;;;;;8.72;53.95;95990.82;106677;1274;22528;-67
2023/03/19 08:57:53;;;;;;;8.60;5.00;;;;;;;8.85;53.53;95991.10;106660;1274;25394;-68
2023/03/19 09:00:22;;;;;;;9.30;5.40;;;;;;;9.01;54.10;95990.84;106587;1274;24269;-68
2023/03/19 09:02:50;;;;;;;9.90;6.80;;;;;;;9.19;54.43;95994.05;106652;1275;25394;-68
2023/03/19 09:05:21;;;;;;;6.90;4.80;;;;;;;9.31;50.85;95991.50;106665;1274;23896;-68
2023/03/19 09:07:51;;;;;;;7.30;4.70;;;;;;;9.39;49.72;95986.01;106665;1275;23879;-68
2023/03/19 09:10:19;;;;;;;8.00;4.80;;;;;;;9.45;49.96;95984.02;106693;1270;22520;-68
2023/03/19 09:12:47;;;;;;;6.00;4.10;;;;;;;9.53;50.05;95982.73;106677;1275;25490;-68
2023/03/19 09:15:16;;;;;;;6.40;4.80;;;;;;;9.73;51.38;95983.79;106643;1275;24245;-68
2023/03/19 09:17:44;;;;;;;6.40;4.80;;;;;;;9.93;51.56;95986.41;106671;1274;24060;-68
2023/03/19 09:20:12;;;;;;;7.80;5.20;;;;;;;10.12;50.80;95985.69;106660;1274;24292;-68
2023/03/19 09:22:41;;;;;;;5.20;3.80;;;;;;;10.29;50.78;95979.90;106684;1275;25269;-68
2023/03/19 09:25:10;;;;;;;6.50;4.20;;;;;;;10.46;49.83;95980.43;106680;1256;24202;-69
2023/03/19 09:27:38;;;;;;;7.60;4.70;;;;;;;10.58;47.70;95978.87;106580;1275;22639;-68
2023/03/19 09:30:08;;;;;;;6.50;4.20;;;;;;;10.57;45.87;95978.02;106601;1275;22615;-68
2023/03/19 09:32:36;;;;;;;7.80;4.50;;;;;;;10.60;45.13;95973.58;106639;1275;24211;-69
2023/03/19 09:35:06;;;;;;;6.80;4.20;;;;;;;10.70;46.17;95976.44;106650;1267;24245;-69
2023/03/19 09:37:34;;;;;;;5.90;4.40;;;;;;;10.78;45.28;95973.86;106691;1274;22543;-68
2023/03/19 09:40:04;;;;;;;6.10;4.20;;;;;;;10.93;47.16;95975.78;106596;1275;22533;-68
2023/03/19 09:42:51;;;;;;;6.40;4.30;;;;;;;11.09;46.67;95973.60;106630;1274;22522;-68
2023/03/19 09:45:19;;;;;;;5.80;4.00;;;;;;;11.19;45.13;95966.95;106657;1275;25001;-69
2023/03/19 09:47:53;;;;;;;7.20;4.10;;;;;;;11.31;45.57;95969.58;106638;1274;24443;-68
2023/03/19 09:50:27;;;;;;;6.60;4.10;;;;;;;11.46;45.74;95959.66;106962;1275;25389;-68
2023/03/19 09:53:05;;;;;;;4.60;3.50;;;;;;;11.56;42.77;95951.73;106668;1274;24384;-68
2023/03/19 09:55:51;;;;;;;5.50;3.80;;;;;;;11.61;42.92;95947.80;106628;1275;25503;-68
2023/03/19 09:58:24;;;;;;;7.10;4.00;;;;;;;11.75;43.88;95951.77;106668;1275;22758;-68
2023/03/19 10:00:54;;;;;;;5.50;3.30;;;;;;;11.91;43.70;95940.94;106653;1275;25391;-68
2023/03/19 10:03:44;;;;;;;5.40;3.70;;;;;;;12.13;43.36;95938.42;106670;1274;23783;-68
2023/03/19 10:06:34;;;;;;;7.70;4.50;;;;;;;12.33;42.83;95938.23;106657;1264;23765;-69
2023/03/19 10:09:18;;;;;;;7.20;5.30;;;;;;;12.45;42.50;95934.61;106673;1274;22741;-68
2023/03/19 10:12:16;;;;;;;12.60;8.40;;;;;;;12.51;44.34;95929.38;106593;1275;24463;-68
2023/03/19 10:14:47;;;;;;;11.50;7.70;;;;;;;12.51;42.17;95928.49;106643;1275;25230;-69
2023/03/19 10:17:20;;;;;;;17.60;11.90;;;;;;;12.41;42.50;95924.99;106641;1275;22564;-68
2023/03/19 10:19:48;;;;;;;;;;;;;;;12.44;43.66;95922.82;106802;1275;24198;-68
2023/03/19 10:22:39;;;;;;;7.20;4.30;;;;;;;12.54;41.98;95925.79;106131;1275;656837;-68
2023/03/19 10:25:15;;;;;;;9.00;5.90;;;;;;;12.72;41.56;95922.93;106670;1275;22518;-68
2023/03/19 10:27:46;;;;;;;10.90;7.60;;;;;;;12.80;41.16;95920.29;106679;1275;24351;-68
2023/03/19 10:30:15;;;;;;;15.40;9.60;;;;;;;12.75;40.97;95917.38;106658;1275;22541;-68
2023/03/19 10:32:52;;;;;;;7.40;4.50;;;;;;;12.84;41.71;95920.20;106696;1275;25234;-68
2023/03/19 10:35:38;;;;;;;7.30;5.10;;;;;;;13.04;41.76;95918.33;106646;1275;25326;-69
2023/03/19 10:38:19;;;;;;;10.60;5.30;;;;;;;13.19;40.05;95915.69;106643;1275;25246;-69
2023/03/19 10:41:02;;;;;;;8.80;5.90;;;;;;;13.08;39.21;95913.12;106596;1275;24067;-66
2023/03/19 10:43:31;;;;;;;6.00;4.60;;;;;;;13.11;40.75;95915.15;106622;1275;22529;-69
2023/03/19 10:45:59;;;;;;;7.90;6.30;;;;;;;13.27;40.76;95913.92;106660;1275;24249;-69
2023/03/19 10:48:28;;;;;;;8.00;5.30;;;;;;;13.41;41.26;95911.48;106635;1275;22528;-69
2023/03/19 10:50:59;;;;;;;6.50;4.40;;;;;;;13.56;41.05;95908.98;106765;1275;22649;-69
2023/03/19 10:53:34;;;;;;;7.90;4.90;;;;;;;13.64;39.57;95899.95;106655;1275;22526;-69
2023/03/19 10:56:05;;;;;;;8.70;5.50;;;;;;;13.72;41.33;95899.38;106611;1275;22640;-70
2023/03/19 10:58:36;;;;;;;5.40;4.70;;;;;;;13.89;41.80;95892.58;106660;1275;22596;-69
2023/03/19 11:01:11;;;;;;;5.20;3.90;;;;;;;14.10;40.22;95887.22;106669;1275;22712;-70
2023/03/19 11:03:51;;;;;;;7.00;4.30;;;;;;;14.34;38.20;95885.83;106573;1275;24381;-69
2023/03/19 11:06:25;;;;;;;7.00;4.50;;;;;;;14.78;38.30;95882.63;106652;1275;24484;-70
2023/03/19 11:09:02;;;;;;;6.30;3.90;;;;;;;15.28;37.23;95876.83;106639;1274;24381;-71
2023/03/19 11:11:43;;;;;;;5.20;3.80;;;;;;;15.70;35.98;95870.45;106567;1272;22633;-71
2023/03/19 11:14:39;;;;;;;6.00;3.70;;;;;;;16.11;35.07;95869.23;106653;1274;25507;-69
2023/03/19 11:17:38;;;;;;;5.70;3.90;;;;;;;16.56;34.16;95865.10;106600;1275;22532;-69
2023/03/19 11:20:10;;;;;;;7.10;4.40;;;;;;;16.84;33.85;95861.89;106780;1275;22540;-69
2023/03/19 11:22:39;;;;;;;5.30;4.00;;;;;;;17.28;32.64;95861.73;106641;1274;22526;-69
2023/03/19 11:25:17;;;;;;;7.30;4.80;;;;;;;17.66;31.76;95852.36;106630;1262;24234;-69
2023/03/19 11:28:05;;;;;;;8.30;6.10;;;;;;;17.90;30.86;95848.52;106655;1274;25942;-69
2023/03/19 11:30:56;;;;;;;5.70;4.00;;;;;;;18.41;31.95;95844.14;106596;1274;25411;-69
2023/03/19 11:33:32;;;;;;;5.50;4.10;;;;;;;18.61;29.51;95835.02;106589;1274;24057;-69
2023/03/19 11:36:30;;;;;;;4.80;4.10;;;;;;;18.85;30.23;95831.42;106626;1275;23879;-68
2023/03/19 11:39:13;;;;;;;5.80;4.20;;;;;;;19.42;31.15;95827.61;106815;1274;22798;-69
2023/03/19 11:42:06;;;;;;;6.20;4.20;;;;;;;19.88;29.02;95827.45;106658;1262;22543;-68
2023/03/19 11:44:51;;;;;;;6.20;4.20;;;;;;;20.28;29.57;95824.06;106602;1275;24373;-69
2023/03/19 11:47:42;;;;;;;5.00;4.10;;;;;;;20.52;28.60;95814.44;106586;1275;22663;-69
2023/03/19 11:50:17;;;;;;;5.10;4.00;;;;;;;20.89;27.43;95814.56;106613;1272;22661;-69